createdAt,value
2022-08-07T00:00:26.337Z,95519.19
2022-08-07T00:03:05.673Z,95521.32
2022-08-07T00:05:37.079Z,95522.22
2022-08-07T00:08:05.325Z,95522.55
2022-08-07T00:10:35.754Z,95520.26
2022-08-07T00:13:23.749Z,95522.11
2022-08-07T00:15:53.209Z,95521.52
2022-08-07T00:18:24.383Z,95525.45
2022-08-07T00:20:54.405Z,95525.59
2022-08-07T00:23:21.706Z,95526.15
2022-08-07T00:25:58.929Z,95528.64
2022-08-07T00:28:33.199Z,95532.74
2022-08-07T00:31:12.627Z,95529.85
2022-08-07T00:33:43.485Z,95531.44
2022-08-07T00:36:14.731Z,95535.05
2022-08-07T00:38:44.909Z,95534.59
2022-08-07T00:41:14.782Z,95535.74
2022-08-07T00:44:01.685Z,95540.69
2022-08-07T00:46:31.068Z,95538.64
2022-08-07T00:49:03.542Z,95541.21
2022-08-07T00:51:57.348Z,95539.97
2022-08-07T00:54:19.683Z,95541.79
2022-08-07T00:56:49.966Z,95537.95
2022-08-07T00:59:35.394Z,95537.69
2022-08-07T01:02:08.965Z,95534.02
2022-08-07T01:04:58.387Z,95535.84
2022-08-07T01:07:29.226Z,95536.00
2022-08-07T01:10:06.642Z,95534.02
2022-08-07T01:12:53.440Z,95536.44
2022-08-07T01:15:35.745Z,95543.05
2022-08-07T01:18:11.284Z,95540.98
2022-08-07T01:21:26.072Z,95537.42
2022-08-07T01:23:57.608Z,95536.86
2022-08-07T01:26:26.291Z,95534.37
2022-08-07T01:28:55.109Z,95531.94
2022-08-07T01:31:42.370Z,95538.27
2022-08-07T01:34:13.975Z,95541.35
2022-08-07T01:36:44.179Z,95539.32
2022-08-07T01:39:16.466Z,95544.81
2022-08-07T01:42:07.359Z,95549.15
2022-08-07T01:44:36.963Z,95553.06
2022-08-07T01:48:16.975Z,95548.45
2022-08-07T01:49:53.649Z,95550.30
2022-08-07T01:52:26.595Z,95549.55
2022-08-07T01:54:56.082Z,95545.04
2022-08-07T01:57:33.771Z,95544.55
2022-08-07T02:00:20.617Z,95538.89
2022-08-07T02:03:12.366Z,95542.20
2022-08-07T02:06:08.834Z,95543.70
2022-08-07T02:08:54.342Z,95541.70
2022-08-07T02:11:31.129Z,95542.84
2022-08-07T02:14:36.348Z,95543.16
2022-08-07T02:17:04.149Z,95542.71
2022-08-07T02:20:04.966Z,95543.12
2022-08-07T02:22:25.896Z,95542.89
2022-08-07T02:24:55.750Z,95544.30
2022-08-07T02:27:24.669Z,95546.38
2022-08-07T02:29:55.084Z,95547.81
2022-08-07T02:32:29.953Z,95547.95
2022-08-07T02:35:01.016Z,95545.87
2022-08-07T02:37:35.889Z,95550.66
2022-08-07T02:40:11.914Z,95550.87
2022-08-07T02:42:57.502Z,95556.40
2022-08-07T02:45:58.082Z,95554.08
2022-08-07T02:48:17.276Z,95551.63
2022-08-07T02:50:50.503Z,95549.63
2022-08-07T02:53:33.945Z,95550.69
2022-08-07T02:56:20.973Z,95556.60
2022-08-07T02:58:55.201Z,95556.97
2022-08-07T03:01:35.291Z,95557.23
2022-08-07T03:04:12.522Z,95562.13
2022-08-07T03:06:44.722Z,95566.88
2022-08-07T03:09:14.159Z,95564.86
2022-08-07T03:11:52.287Z,95561.95
2022-08-07T03:14:28.237Z,95557.19
2022-08-07T03:16:56.733Z,95559.55
2022-08-07T03:19:24.886Z,95555.56
2022-08-07T03:21:56.952Z,95556.58
2022-08-07T03:24:28.071Z,95553.30
2022-08-07T03:27:02.126Z,95557.23
2022-08-07T03:29:46.056Z,95561.73
2022-08-07T03:32:35.660Z,95559.52
2022-08-07T03:35:17.854Z,95567.07
2022-08-07T03:37:55.173Z,95563.73
2022-08-07T03:40:31.179Z,95565.90
2022-08-07T03:43:10.022Z,95563.42
2022-08-07T03:45:47.836Z,95564.24
2022-08-07T03:48:19.578Z,95564.09
2022-08-07T03:50:56.169Z,95565.25
2022-08-07T03:53:30.246Z,95567.25
2022-08-07T03:56:33.041Z,95571.64
2022-08-07T03:59:13.104Z,95572.96
2022-08-07T04:01:46.694Z,95575.65
2022-08-07T04:04:17.848Z,95574.20
2022-08-07T04:06:50.932Z,95576.54
2022-08-07T04:09:23.456Z,95579.59
2022-08-07T04:12:23.946Z,95580.60
2022-08-07T04:14:46.110Z,95578.58
2022-08-07T04:18:56.930Z,95578.75
2022-08-07T04:20:09.712Z,95583.06
2022-08-07T04:22:37.788Z,95586.36
2022-08-07T04:25:11.776Z,95586.56
2022-08-07T04:27:44.179Z,95587.81
2022-08-07T04:30:21.021Z,95593.13
2022-08-07T04:33:09.342Z,95592.36
2022-08-07T04:35:39.291Z,95598.20
2022-08-07T04:38:11.451Z,95600.94
2022-08-07T04:40:52.089Z,95603.95
2022-08-07T04:44:10.111Z,95604.98
2022-08-07T04:46:51.345Z,95604.40
2022-08-07T04:49:30.297Z,95606.41
2022-08-07T04:52:19.354Z,95607.17
2022-08-07T04:54:52.863Z,95612.20
2022-08-07T04:58:13.161Z,95609.90
2022-08-07T05:00:38.469Z,95608.27
2022-08-07T05:04:07.272Z,95608.84
2022-08-07T05:06:20.274Z,95610.01
2022-08-07T05:09:10.346Z,95612.19
2022-08-07T05:11:57.086Z,95613.02
2022-08-07T05:14:55.449Z,95612.86
2022-08-07T05:17:50.293Z,95618.84
2022-08-07T05:20:24.685Z,95625.61
2022-08-07T05:22:59.825Z,95625.48
2022-08-07T05:26:11.142Z,95626.61
2022-08-07T05:28:22.737Z,95625.41
2022-08-07T05:30:55.001Z,95631.20
2022-08-07T05:33:26.856Z,95634.27
2022-08-07T05:35:56.546Z,95632.34
2022-08-07T05:38:58.406Z,95630.55
2022-08-07T05:41:16.783Z,95637.12
2022-08-07T05:44:11.755Z,95638.06
2022-08-07T05:46:38.008Z,95639.52
2022-08-07T05:49:11.847Z,95639.46
2022-08-07T05:51:46.285Z,95639.63
2022-08-07T05:54:31.007Z,95643.91
2022-08-07T05:57:00.622Z,95644.70
2022-08-07T05:59:47.243Z,95644.95
2022-08-07T06:02:28.432Z,95639.90
2022-08-07T06:05:03.544Z,95641.77
2022-08-07T06:08:30.436Z,95639.41
2022-08-07T06:10:22.564Z,95642.43
2022-08-07T06:12:50.218Z,95640.85
2022-08-07T06:15:19.952Z,95645.20
2022-08-07T06:17:53.829Z,95643.66
2022-08-07T06:20:32.066Z,95645.76
2022-08-07T06:23:46.161Z,95643.17
2022-08-07T06:26:00.453Z,95643.42
2022-08-07T06:28:28.598Z,95645.83
2022-08-07T06:30:58.280Z,95643.20
2022-08-07T06:33:27.218Z,95644.27
2022-08-07T06:36:11.843Z,95645.08
2022-08-07T06:38:59.516Z,95649.13
2022-08-07T06:42:03.572Z,95654.02
2022-08-07T06:45:06.752Z,95651.56
2022-08-07T06:47:48.228Z,95650.38
2022-08-07T06:50:30.465Z,95644.38
2022-08-07T06:53:00.345Z,95642.23
2022-08-07T06:55:47.919Z,95644.42
2022-08-07T06:58:27.393Z,95638.96
2022-08-07T07:01:06.775Z,95639.21
2022-08-07T07:03:47.449Z,95642.95
2022-08-07T07:06:23.898Z,95647.10
2022-08-07T07:08:53.168Z,95648.70
2022-08-07T07:12:09.622Z,95645.73
2022-08-07T07:14:09.923Z,95649.31
2022-08-07T07:16:50.780Z,95652.81
2022-08-07T07:19:55.362Z,95649.40
2022-08-07T07:22:36.262Z,95654.23
2022-08-07T07:26:31.400Z,95649.99
2022-08-07T07:28:29.829Z,95652.73
2022-08-07T07:31:07.136Z,95651.13
2022-08-07T07:33:35.826Z,95651.08
2022-08-07T07:36:13.413Z,95647.57
2022-08-07T07:38:46.172Z,95647.41
2022-08-07T07:41:16.054Z,95645.86
2022-08-07T07:44:14.262Z,95651.79
2022-08-07T07:46:53.941Z,95655.77
2022-08-07T07:50:34.368Z,95652.98
2022-08-07T07:52:15.818Z,95651.12
2022-08-07T07:54:51.500Z,95653.63
2022-08-07T07:57:53.439Z,95649.37
2022-08-07T08:00:14.979Z,95648.34
2022-08-07T08:03:05.392Z,95645.09
2022-08-07T08:05:54.207Z,95643.83
2022-08-07T08:08:35.112Z,95637.05
2022-08-07T08:11:05.953Z,95636.91
2022-08-07T08:13:53.156Z,95634.92
2022-08-07T08:16:39.260Z,95635.34
2022-08-07T08:20:16.366Z,95637.83
2022-08-07T08:22:18.902Z,95636.65
2022-08-07T08:25:18.718Z,95639.50
2022-08-07T08:28:01.711Z,95636.44
2022-08-07T08:30:35.062Z,95639.91
2022-08-07T08:33:18.476Z,95635.05
2022-08-07T08:35:50.930Z,95636.48
2022-08-07T08:38:25.901Z,95642.31
2022-08-07T08:41:15.977Z,95636.70
2022-08-07T08:44:15.293Z,95639.58
2022-08-07T08:47:12.544Z,95637.73
2022-08-07T08:50:02.453Z,95633.46
2022-08-07T08:52:55.818Z,95638.77
2022-08-07T08:55:55.556Z,95638.20
2022-08-07T08:58:39.046Z,95638.85
2022-08-07T09:01:18.664Z,95636.97
2022-08-07T09:04:07.224Z,95631.22
2022-08-07T09:07:05.438Z,95635.84
2022-08-07T09:10:07.379Z,95636.39
2022-08-07T09:12:53.444Z,95631.23
2022-08-07T09:16:24.533Z,95625.13
2022-08-07T09:18:41.045Z,95624.79
2022-08-07T09:21:33.766Z,95627.81
2022-08-07T09:24:30.860Z,95622.55
2022-08-07T09:27:22.574Z,95619.80
2022-08-07T09:30:08.274Z,95620.53
2022-08-07T09:32:47.890Z,95622.05
2022-08-07T09:36:04.710Z,95613.59
2022-08-07T09:38:58.958Z,95609.11
2022-08-07T09:42:12.837Z,95606.11
2022-08-07T09:47:37.203Z,95603.62
2022-08-07T09:48:08.823Z,95602.77
2022-08-07T09:50:53.890Z,95602.27
2022-08-07T09:53:22.869Z,95607.11
2022-08-07T09:56:37.201Z,95609.14
2022-08-07T09:59:46.441Z,95600.22
2022-08-07T10:03:08.097Z,95597.82
2022-08-07T10:06:00.895Z,95589.71
2022-08-07T10:08:32.434Z,95588.88
2022-08-07T10:11:17.255Z,95586.95
2022-08-07T10:14:47.437Z,95587.67
2022-08-07T10:18:09.448Z,95587.75
2022-08-07T10:20:41.825Z,95588.37
2022-08-07T10:24:05.694Z,95587.16
2022-08-07T10:26:53.118Z,95582.17
2022-08-07T10:29:51.446Z,95579.56
2022-08-07T10:32:53.286Z,95579.61
2022-08-07T10:35:55.527Z,95574.40
2022-08-07T10:38:49.942Z,95574.61
2022-08-07T10:41:51.349Z,95573.48
2022-08-07T10:44:39.151Z,95567.62
2022-08-07T10:47:27.010Z,95562.95
2022-08-07T10:50:25.683Z,95550.59
2022-08-07T10:52:58.964Z,95549.39
2022-08-07T10:55:53.293Z,95550.46
2022-08-07T10:58:49.646Z,95554.73
2022-08-07T11:01:35.198Z,95553.57
2022-08-07T11:04:31.429Z,95552.10
2022-08-07T11:07:15.058Z,95552.61
2022-08-07T11:10:06.976Z,95545.16
2022-08-07T11:12:44.996Z,95548.17
2022-08-07T11:15:26.366Z,95543.20
2022-08-07T11:18:12.508Z,95544.28
2022-08-07T11:20:42.998Z,95537.73
2022-08-07T11:23:39.230Z,95536.67
2022-08-07T11:26:43.462Z,95530.67
2022-08-07T11:29:43.596Z,95530.81
2022-08-07T11:32:25.292Z,95527.45
2022-08-07T11:35:27.597Z,95534.98
2022-08-07T11:38:12.889Z,95537.42
2022-08-07T11:41:10.713Z,95534.34
2022-08-07T11:44:11.932Z,95529.05
2022-08-07T11:46:48.673Z,95526.52
2022-08-07T11:50:18.820Z,95530.31
2022-08-07T11:52:28.996Z,95525.70
2022-08-07T11:56:09.594Z,95521.97
2022-08-07T11:58:39.946Z,95520.55
2022-08-07T12:02:00.791Z,95511.38
2022-08-07T12:04:34.218Z,95509.59
2022-08-07T12:07:10.140Z,95516.30
2022-08-07T12:09:59.394Z,95512.74
2022-08-07T12:12:40.939Z,95511.82
2022-08-07T12:15:17.430Z,95511.98
2022-08-07T12:18:22.119Z,95513.05
2022-08-07T12:22:36.543Z,95513.20
2022-08-07T12:24:40.297Z,95505.41
2022-08-07T12:27:16.687Z,95504.90
2022-08-07T12:30:05.158Z,95508.70
2022-08-07T12:32:41.619Z,95510.13
2022-08-07T12:35:13.190Z,95512.69
2022-08-07T12:38:11.205Z,95513.07
2022-08-07T12:40:50.561Z,95512.16
2022-08-07T12:44:02.284Z,95518.04
2022-08-07T12:46:32.825Z,95520.92
2022-08-07T12:49:25.367Z,95526.34
2022-08-07T12:52:13.680Z,95526.58
2022-08-07T12:55:05.377Z,95528.67
2022-08-07T12:58:00.426Z,95527.77
2022-08-07T13:01:05.175Z,95523.39
2022-08-07T13:04:06.107Z,95521.31
2022-08-07T13:07:00.901Z,95526.58
2022-08-07T13:10:21.531Z,95522.45
2022-08-07T13:12:37.144Z,95521.94
2022-08-07T13:15:23.672Z,95522.60
2022-08-07T13:18:01.914Z,95525.77
2022-08-07T13:20:31.933Z,95525.21
2022-08-07T13:24:00.788Z,95528.96
2022-08-07T13:26:18.410Z,95526.66
2022-08-07T13:29:01.421Z,95517.96
2022-08-07T13:31:46.029Z,95520.09
2022-08-07T13:34:50.809Z,95523.65
2022-08-07T13:38:12.306Z,95525.35
2022-08-07T13:40:52.596Z,95525.75
2022-08-07T13:43:22.510Z,95527.67
2022-08-07T13:46:16.407Z,95527.34
2022-08-07T13:48:58.298Z,95522.36
2022-08-07T13:52:04.756Z,95523.93
2022-08-07T13:54:23.566Z,95525.91
2022-08-07T13:56:59.811Z,95524.31
2022-08-07T13:59:34.502Z,95526.11
2022-08-07T14:02:12.859Z,95529.66
2022-08-07T14:04:54.741Z,95532.77
2022-08-07T14:07:27.395Z,95540.04
2022-08-07T14:10:01.491Z,95544.80
2022-08-07T14:12:55.592Z,95553.45
2022-08-07T14:15:51.157Z,95555.63
2022-08-07T14:18:29.610Z,95563.86
2022-08-07T14:21:08.228Z,95571.20
2022-08-07T14:23:59.957Z,95578.45
2022-08-07T14:26:55.311Z,95581.23
2022-08-07T14:30:08.228Z,95577.33
2022-08-07T14:32:26.237Z,95579.62
2022-08-07T14:34:54.993Z,95577.00
2022-08-07T14:37:36.319Z,95572.52
2022-08-07T14:40:17.991Z,95570.33
2022-08-07T14:45:56.339Z,95571.04
2022-08-07T14:48:30.274Z,95575.84
2022-08-07T14:51:06.722Z,95576.97
2022-08-07T14:54:05.423Z,95577.98
2022-08-07T14:56:33.279Z,95581.52
2022-08-07T14:59:14.138Z,95583.63
2022-08-07T15:02:32.119Z,95589.43
2022-08-07T15:07:52.244Z,95590.79
2022-08-07T15:13:19.693Z,95596.58
2022-08-07T15:15:52.554Z,95589.96
2022-08-07T15:18:34.855Z,95590.36
2022-08-07T15:21:07.991Z,95592.21
2022-08-07T15:25:02.602Z,95601.10
2022-08-07T15:26:38.118Z,95601.07
2022-08-07T15:30:06.373Z,95603.30
2022-08-07T15:32:02.894Z,95599.52
2022-08-07T15:34:37.565Z,95601.23
2022-08-07T15:37:27.830Z,95599.52
2022-08-07T15:39:58.349Z,95600.36
2022-08-07T15:42:43.905Z,95601.96
2022-08-07T15:45:19.312Z,95599.89
2022-08-07T15:48:00.950Z,95600.20
2022-08-07T15:51:01.261Z,95601.23
2022-08-07T15:53:42.190Z,95601.84
2022-08-07T15:56:17.175Z,95601.83
2022-08-07T15:58:43.792Z,95603.02
2022-08-07T16:01:38.483Z,95601.79
2022-08-07T16:04:15.075Z,95602.73
2022-08-07T16:06:43.887Z,95605.33
2022-08-07T16:09:22.644Z,95605.56
2022-08-07T16:12:25.063Z,95606.05
2022-08-07T16:15:05.613Z,95603.89
2022-08-07T16:18:09.097Z,95601.59
2022-08-07T16:21:53.453Z,95599.36
2022-08-07T16:23:58.329Z,95595.86
2022-08-07T16:26:30.906Z,95599.98
2022-08-07T16:30:10.920Z,95598.13
2022-08-07T16:32:25.520Z,95595.63
2022-08-07T16:35:51.971Z,95595.06
2022-08-07T16:38:44.380Z,95587.45
2022-08-07T16:41:14.256Z,95585.90
2022-08-07T16:44:40.231Z,95588.36
2022-08-07T16:47:51.113Z,95587.30
2022-08-07T16:50:36.261Z,95589.10
2022-08-07T16:54:02.639Z,95594.66
2022-08-07T16:56:19.120Z,95595.21
2022-08-07T16:59:11.364Z,95595.24
2022-08-07T17:02:48.709Z,95595.88
2022-08-07T17:06:01.719Z,95594.84
2022-08-07T17:08:05.726Z,95599.77
2022-08-07T17:10:54.851Z,95601.05
2022-08-07T17:14:17.433Z,95602.78
2022-08-07T17:16:44.194Z,95604.01
2022-08-07T17:20:01.979Z,95602.74
2022-08-07T17:22:30.139Z,95602.30
2022-08-07T17:25:08.157Z,95598.52
2022-08-07T17:28:19.530Z,95595.95
2022-08-07T17:30:58.485Z,95599.38
2022-08-07T17:34:10.123Z,95604.32
2022-08-07T17:36:26.472Z,95603.52
2022-08-07T17:39:17.180Z,95606.95
2022-08-07T17:42:01.628Z,95614.45
2022-08-07T17:45:17.589Z,95614.77
2022-08-07T17:48:01.441Z,95612.87
2022-08-07T17:50:56.938Z,95611.02
2022-08-07T17:54:01.956Z,95610.46
2022-08-07T17:56:32.512Z,95610.53
2022-08-07T17:59:09.061Z,95615.03
2022-08-07T18:01:38.969Z,95618.72
2022-08-07T18:04:31.005Z,95620.42
2022-08-07T18:07:34.338Z,95618.75
2022-08-07T18:10:32.671Z,95620.36
2022-08-07T18:13:00.684Z,95619.44
2022-08-07T18:15:53.447Z,95624.84
2022-08-07T18:19:02.397Z,95627.96
2022-08-07T18:21:51.670Z,95634.63
2022-08-07T18:24:37.048Z,95630.63
2022-08-07T18:27:23.565Z,95629.71
2022-08-07T18:30:31.764Z,95632.16
2022-08-07T18:33:15.353Z,95639.24
2022-08-07T18:36:06.067Z,95641.54
2022-08-07T18:38:58.566Z,95645.11
2022-08-07T18:41:45.790Z,95646.39
2022-08-07T18:44:22.221Z,95647.92
2022-08-07T18:47:11.289Z,95647.03
2022-08-07T18:50:40.742Z,95651.65
2022-08-07T18:53:12.657Z,95652.85
2022-08-07T18:55:57.199Z,95654.11
2022-08-07T18:58:51.218Z,95654.19
2022-08-07T19:02:31.922Z,95657.57
2022-08-07T19:04:54.686Z,95661.59
2022-08-07T19:07:51.929Z,95665.70
2022-08-07T19:10:51.554Z,95668.98
2022-08-07T19:13:21.660Z,95669.80
2022-08-07T19:17:04.320Z,95670.30
2022-08-07T19:19:53.288Z,95672.90
2022-08-07T19:22:33.637Z,95675.08
2022-08-07T19:25:06.897Z,95676.80
2022-08-07T19:28:58.223Z,95675.97
2022-08-07T19:31:00.694Z,95671.20
2022-08-07T19:33:34.953Z,95674.23
2022-08-07T19:36:05.131Z,95675.45
2022-08-07T19:38:52.588Z,95681.53
2022-08-07T19:41:39.316Z,95682.02
2022-08-07T19:44:22.010Z,95684.30
2022-08-07T19:46:57.868Z,95688.91
2022-08-07T19:49:57.396Z,95686.20
2022-08-07T19:52:19.188Z,95686.14
2022-08-07T19:54:56.337Z,95684.09
2022-08-07T19:58:04.683Z,95688.21
2022-08-07T20:00:29.458Z,95689.40
2022-08-07T20:03:02.706Z,95690.80
2022-08-07T20:05:47.504Z,95683.59
2022-08-07T20:08:24.001Z,95683.10
2022-08-07T20:11:02.161Z,95678.73
2022-08-07T20:13:37.826Z,95680.00
2022-08-07T20:16:15.808Z,95677.08
2022-08-07T20:19:04.536Z,95682.59
2022-08-07T20:21:41.783Z,95685.77
2022-08-07T20:24:28.851Z,95688.30
2022-08-07T20:27:01.882Z,95688.35
2022-08-07T20:29:49.402Z,95687.34
2022-08-07T20:32:27.485Z,95688.67
2022-08-07T20:35:26.469Z,95685.52
2022-08-07T20:37:59.059Z,95685.49
2022-08-07T20:40:34.621Z,95686.06
2022-08-07T20:43:14.494Z,95682.73
2022-08-07T20:46:25.746Z,95682.28
2022-08-07T20:48:39.592Z,95683.71
2022-08-07T20:51:28.086Z,95685.22
2022-08-07T20:54:09.276Z,95690.11
2022-08-07T20:56:41.920Z,95693.04
2022-08-07T21:00:04.926Z,95696.89
2022-08-07T21:02:32.305Z,95699.98
2022-08-07T21:05:01.485Z,95704.24
2022-08-07T21:07:33.445Z,95705.72
2022-08-07T21:10:03.777Z,95705.57
2022-08-07T21:12:34.332Z,95708.42
2022-08-07T21:15:06.769Z,95701.56
2022-08-07T21:18:02.033Z,95702.68
2022-08-07T21:20:30.161Z,95702.04
2022-08-07T21:23:15.402Z,95704.79
2022-08-07T21:26:26.861Z,95707.52
2022-08-07T21:29:05.766Z,95707.81
2022-08-07T21:32:46.823Z,95704.93
2022-08-07T21:35:05.864Z,95701.52
2022-08-07T21:37:58.064Z,95702.31
2022-08-07T21:40:53.307Z,95704.67
2022-08-07T21:43:36.512Z,95706.80
2022-08-07T21:46:41.634Z,95703.86
2022-08-07T21:49:26.801Z,95699.97
2022-08-07T21:52:09.075Z,95701.02
2022-08-07T21:55:10.283Z,95698.16
2022-08-07T21:57:52.318Z,95700.18
2022-08-07T22:00:24.868Z,95703.42
2022-08-07T22:02:54.916Z,95705.34
2022-08-07T22:05:45.807Z,95708.66
2022-08-07T22:08:18.823Z,95709.25
2022-08-07T22:10:54.830Z,95705.47
2022-08-07T22:13:50.332Z,95702.44
2022-08-07T22:16:43.410Z,95701.79
2022-08-07T22:19:23.873Z,95701.09
2022-08-07T22:22:17.762Z,95703.98
2022-08-07T22:25:10.714Z,95706.47
2022-08-07T22:28:29.634Z,95707.11
2022-08-07T22:30:40.108Z,95704.71
2022-08-07T22:33:12.453Z,95704.73
2022-08-07T22:35:58.172Z,95706.42
2022-08-07T22:38:37.431Z,95704.23
2022-08-07T22:41:19.954Z,95702.65
2022-08-07T22:43:56.126Z,95701.58
2022-08-07T22:47:02.808Z,95697.84
2022-08-07T22:49:18.872Z,95701.52
2022-08-07T22:51:55.153Z,95701.28
2022-08-07T22:54:48.906Z,95703.73
2022-08-07T22:57:44.327Z,95705.14
2022-08-07T23:00:12.520Z,95709.32
2022-08-07T23:03:09.142Z,95707.18
2022-08-07T23:06:07.757Z,95710.17
2022-08-07T23:10:00.760Z,95704.88
2022-08-07T23:12:05.798Z,95702.84
2022-08-07T23:14:47.563Z,95699.27
2022-08-07T23:17:29.664Z,95701.32
2022-08-07T23:20:51.605Z,95701.00
2022-08-07T23:24:06.589Z,95698.05
2022-08-07T23:27:06.043Z,95697.70
2022-08-07T23:30:39.683Z,95695.43
2022-08-07T23:34:21.611Z,95693.83
2022-08-07T23:36:30.094Z,95698.02
2022-08-07T23:39:08.558Z,95700.23
2022-08-07T23:41:47.711Z,95705.27
2022-08-07T23:44:45.222Z,95707.98
2022-08-07T23:47:30.272Z,95704.37
2022-08-07T23:50:40.404Z,95704.80
2022-08-07T23:53:19.600Z,95701.71
2022-08-07T23:56:03.615Z,95705.19
2022-08-07T23:58:43.906Z,95704.33
